Time;durP1;ratioP1;P1;durP2;ratioP2;P2;SDS_P1;SDS_P2;PMS_P1;PMS_P2;Temp;Humidity;BMP_temperature;BMP_pressure;BME280_temperature;BME280_humidity;BME280_pressure;Samples;Min_cycle;Max_cycle;Signal;HPM_P1;HPM_P2
2021/06/01 04:39:04;;;;;;;7.83;3.22;;;;;;;11.01;75.76;99841.77;1687862;84;21149;-42
2021/06/01 04:41:31;;;;;;;4.47;3.60;;;;;;;11.07;75.60;99838.23;1703741;83;21582;-36
2021/06/01 04:43:57;;;;;;;7.40;3.65;;;;;;;11.08;76.05;99840.00;1689082;83;21145;-42
2021/06/01 04:46:24;;;;;;;3.70;3.30;;;;;;;11.07;75.61;99834.30;1694035;83;21628;-37
2021/06/01 04:48:51;;;;;;;5.03;3.37;;;;;;;11.07;75.50;99839.09;1697049;83;21125;-37
2021/06/01 04:51:19;;;;;;;3.60;3.10;;;;;;;11.09;75.84;99841.28;1691961;83;21048;-37
2021/06/01 04:53:51;;;;;;;5.85;3.33;;;;;;;11.10;75.78;99836.47;1695582;83;21132;-36
2021/06/01 04:56:18;;;;;;;3.75;2.50;;;;;;;11.12;75.60;99835.13;1697784;83;21061;-37
2021/06/01 04:58:46;;;;;;;4.80;3.12;;;;;;;11.13;75.39;99831.22;1680249;83;21098;-42
2021/06/01 05:01:12;;;;;;;3.85;2.40;;;;;;;11.16;75.65;99835.09;1674497;84;21035;-42
2021/06/01 05:03:39;;;;;;;7.75;3.25;;;;;;;11.18;75.52;99839.86;1697672;83;21801;-42
2021/06/01 05:06:07;;;;;;;3.27;2.85;;;;;;;11.22;75.27;99845.09;1699599;83;21039;-42
2021/06/01 05:08:34;;;;;;;3.65;2.62;;;;;;;11.27;75.36;99841.98;1695752;83;21484;-43
2021/06/01 05:11:01;;;;;;;3.72;2.92;;;;;;;11.29;74.80;99838.45;1692447;83;21076;-42
2021/06/01 05:13:30;;;;;;;5.50;2.77;;;;;;;11.30;74.78;99841.94;1688695;83;21090;-43
2021/06/01 05:15:57;;;;;;;3.08;2.65;;;;;;;11.30;74.91;99831.46;1689354;83;21547;-43
2021/06/01 05:18:23;;;;;;;4.85;3.20;;;;;;;11.34;75.12;99832.73;1694138;83;21083;-41
2021/06/01 05:20:50;;;;;;;6.53;2.83;;;;;;;11.37;74.71;99837.09;1687344;84;21705;-42
2021/06/01 05:23:19;;;;;;;5.35;2.77;;;;;;;11.42;74.50;99835.26;1688886;83;21708;-42
2021/06/01 05:25:46;;;;;;;5.83;2.87;;;;;;;11.45;74.67;99836.55;1688990;83;21619;-43
2021/06/01 05:28:12;;;;;;;4.17;2.35;;;;;;;11.49;74.29;99834.34;1690737;83;21633;-42
2021/06/01 05:31:12;;;;;;;2.95;2.15;;;;;;;11.54;74.61;99836.47;1695822;82;21038;-43
2021/06/01 05:33:19;;;;;;;4.87;2.25;;;;;;;11.57;74.18;99838.17;1688810;82;21135;-37
2021/06/01 05:35:52;;;;;;;2.02;1.82;;;;;;;11.58;74.05;99839.45;1693614;83;21136;-37
2021/06/01 05:38:21;;;;;;;3.05;2.17;;;;;;;11.63;74.00;99835.48;1696637;82;21120;-43
2021/06/01 05:40:48;;;;;;;6.70;2.33;;;;;;;11.66;73.52;99832.84;1686213;82;21552;-37
2021/06/01 05:43:16;;;;;;;8.33;2.20;;;;;;;11.71;73.73;99832.31;1708570;82;21578;-37
2021/06/01 05:45:44;;;;;;;4.50;1.98;;;;;;;11.77;73.58;99825.72;1707592;82;21122;-37
2021/06/01 05:48:11;;;;;;;3.35;2.30;;;;;;;11.86;73.35;99829.99;1708142;82;21427;-37
2021/06/01 05:50:39;;;;;;;4.72;1.90;;;;;;;11.95;73.31;99825.95;1710019;81;21921;-38
2021/06/01 05:53:06;;;;;;;2.20;1.80;;;;;;;12.04;73.12;99821.02;1709351;82;21692;-38
2021/06/01 05:55:33;;;;;;;1.98;1.67;;;;;;;12.10;72.20;99822.24;1708487;82;21492;-43
2021/06/01 05:58:12;;;;;;;2.67;1.90;;;;;;;12.13;72.64;99826.16;1709904;82;21101;-38
2021/06/01 06:00:45;;;;;;;7.30;1.82;;;;;;;12.18;72.11;99827.83;1705812;82;21046;-37
2021/06/01 06:03:17;;;;;;;2.72;1.42;;;;;;;12.19;71.23;99826.06;1710029;82;21093;-42
2021/06/01 06:05:44;;;;;;;1.67;1.55;;;;;;;12.17;71.12;99826.06;1710884;81;21056;-37
2021/06/01 06:08:18;;;;;;;3.08;2.08;;;;;;;12.16;71.71;99824.33;1710423;82;21121;-43
2021/06/01 06:10:46;;;;;;;4.12;1.32;;;;;;;12.22;71.19;99823.38;1712428;82;21659;-42
2021/06/01 06:13:13;;;;;;;5.10;1.77;;;;;;;12.24;71.03;99817.25;1708830;82;21484;-36
2021/06/01 06:15:40;;;;;;;3.37;1.65;;;;;;;12.25;70.75;99823.36;1715196;82;21041;-37
2021/06/01 06:18:40;;;;;;;3.45;1.95;;;;;;;12.25;71.42;99818.11;1722638;82;21083;-41
2021/06/01 06:21:07;;;;;;;6.67;2.20;;;;;;;12.24;70.53;99817.69;1712456;80;21082;-37
2021/06/01 06:23:35;;;;;;;1.82;1.67;;;;;;;12.20;70.80;99827.80;1713147;82;21154;-37
2021/06/01 06:26:02;;;;;;;3.35;1.67;;;;;;;12.21;71.08;99829.52;1714559;80;21124;-36
2021/06/01 06:33:02;;;;;;;2.90;1.70;;;;;;;12.27;71.53;99832.50;1713197;82;21139;-36
2021/06/01 06:35:29;;;;;;;6.05;1.70;;;;;;;12.30;71.29;99828.09;1705029;82;21017;-36
2021/06/01 06:37:56;;;;;;;4.15;1.65;;;;;;;12.30;71.36;99829.41;1708140;83;21036;-36
2021/06/01 06:40:29;;;;;;;3.87;1.50;;;;;;;12.27;71.25;99826.81;1708274;82;21577;-38
2021/06/01 06:43:01;;;;;;;5.87;2.02;;;;;;;12.25;70.49;99829.91;1697580;82;21121;-42
2021/06/01 06:45:31;;;;;;;4.90;1.50;;;;;;;12.20;70.50;99836.52;1674726;84;21142;-42
2021/06/01 06:48:05;;;;;;;2.47;1.65;;;;;;;12.20;70.64;99819.92;1664203;84;22036;-42
2021/06/01 06:50:29;;;;;;;3.12;1.57;;;;;;;12.20;71.01;99827.80;1672077;84;21128;-42
2021/06/01 06:52:56;;;;;;;2.77;1.80;;;;;;;12.19;71.19;99826.06;1691192;84;21106;-42
2021/06/01 06:55:23;;;;;;;2.70;1.37;;;;;;;12.18;71.35;99829.13;1703598;82;21085;-37
2021/06/01 06:57:51;;;;;;;2.55;1.50;;;;;;;12.20;71.69;99826.48;1704823;82;21601;-36
2021/06/01 07:00:21;;;;;;;1.87;1.27;;;;;;;12.22;70.95;99816.83;1700679;82;21699;-37
2021/06/01 07:02:48;;;;;;;5.62;1.40;;;;;;;12.25;71.02;99831.22;1697656;81;21177;-37
2021/06/01 07:05:17;;;;;;;1.42;1.25;;;;;;;12.26;70.37;99831.64;1699964;82;21413;-37
2021/06/01 07:07:48;;;;;;;1.75;1.37;;;;;;;12.26;69.74;99831.64;1699028;82;21105;-38
2021/06/01 07:10:15;;;;;;;1.85;1.30;;;;;;;12.26;69.62;99827.70;1696442;82;21659;-42
2021/06/01 07:12:43;;;;;;;1.72;1.57;;;;;;;12.24;69.77;99827.73;1696342;82;21062;-42
2021/06/01 07:15:24;;;;;;;4.80;1.67;;;;;;;12.24;69.71;99829.50;1700738;82;21086;-42
2021/06/01 08:01:36;;;;;;;8.53;4.40;;;;;;;12.41;70.18;99843.69;1833084;77;21191;-43
2021/06/01 08:04:35;;;;;;;8.43;4.00;;;;;;;12.34;70.17;99839.39;1783518;79;21089;-41
2021/06/01 08:07:24;;;;;;;7.15;4.15;;;;;;;12.21;70.71;99833.45;1769044;78;21134;-44
2021/06/01 08:56:25;;;;;;;7.25;3.83;;;;;;;12.13;70.94;99836.19;1791194;76;21221;-42
2021/06/01 09:11:00;;;;;;;6.50;3.30;;;;;;;11.93;72.09;99831.64;1726196;81;21283;-42
2021/06/01 09:21:42;;;;;;;4.58;3.33;;;;;;;11.75;75.17;99839.26;1631943;85;21759;-38
2021/06/01 09:24:08;;;;;;;4.03;3.20;;;;;;;11.71;75.58;99838.45;1625145;86;21094;-41
2021/06/01 09:29:34;;;;;;;7.45;3.62;;;;;;;11.62;75.73;99840.30;1628805;86;21110;-39
2021/06/01 09:32:11;;;;;;;4.58;3.67;;;;;;;11.59;76.42;99842.94;1642942;86;21483;-43
2021/06/01 09:34:43;;;;;;;5.80;3.33;;;;;;;11.56;75.84;99846.47;1615727;86;21112;-42
2021/06/01 09:37:27;;;;;;;4.00;3.20;;;;;;;11.55;76.84;99842.56;1628377;86;21255;-39
2021/06/01 09:40:19;;;;;;;4.55;3.22;;;;;;;11.51;77.27;99836.92;1637437;86;21171;-41
2021/06/01 09:42:58;;;;;;;7.70;3.70;;;;;;;11.50;78.19;99841.75;1631858;86;21653;-42
2021/06/01 09:45:31;;;;;;;8.05;3.83;;;;;;;11.51;78.25;99835.17;1607128;87;22190;-41
2021/06/01 09:48:13;;;;;;;8.13;4.10;;;;;;;11.54;78.95;99848.25;1629490;86;21104;-42
2021/06/01 09:50:52;;;;;;;8.40;3.87;;;;;;;11.54;78.91;99843.42;1627194;85;21197;-43
2021/06/01 09:53:24;;;;;;;9.80;3.72;;;;;;;11.54;79.47;99845.63;1636969;85;21094;-40
2021/06/01 09:55:47;;;;;;;6.47;3.75;;;;;;;11.54;79.28;99839.08;1663930;81;21111;-43
2021/06/01 09:58:31;;;;;;;6.85;4.47;;;;;;;11.57;79.31;99846.89;1711573;81;21072;-40
2021/06/01 10:00:59;;;;;;;7.62;4.65;;;;;;;11.61;79.78;99845.12;1708026;81;21660;-40
2021/06/01 10:03:35;;;;;;;9.25;4.70;;;;;;;11.64;79.39;99849.00;1718574;81;21174;-44
2021/06/01 10:05:57;;;;;;;10.38;4.67;;;;;;;11.63;79.69;99845.95;1719890;82;21456;-40
2021/06/01 10:08:30;;;;;;;8.30;4.67;;;;;;;11.64;80.47;99836.76;1684646;83;21479;-39
2021/06/01 10:11:01;;;;;;;6.35;4.50;;;;;;;11.64;79.23;99844.62;1711694;82;21102;-39
2021/06/01 10:13:33;;;;;;;5.35;4.53;;;;;;;11.64;79.76;99847.69;1711582;81;21062;-41
2021/06/01 10:16:18;;;;;;;8.88;5.33;;;;;;;11.63;80.23;99842.89;1706707;83;21116;-41
2021/06/01 10:18:47;;;;;;;6.50;4.60;;;;;;;11.66;80.82;99846.80;1678290;82;21146;-41
2021/06/01 10:21:21;;;;;;;5.08;4.20;;;;;;;11.68;80.58;99843.70;1697201;83;21152;-39
2021/06/01 10:23:51;;;;;;;6.63;4.70;;;;;;;11.68;80.77;99843.70;1706977;81;21062;-42
2021/06/01 10:26:17;;;;;;;6.50;4.55;;;;;;;11.66;80.23;99842.88;1648951;85;21138;-39
2021/06/01 10:28:50;;;;;;;8.78;3.90;;;;;;;11.63;80.00;99842.89;1647198;85;21066;-41
2021/06/01 10:31:17;;;;;;;;;;;;;;;11.60;80.22;99842.94;1707329;82;21091;-39
2021/06/01 10:33:50;;;;;;;5.03;4.03;;;;;;;11.57;81.06;99839.03;1689020;82;20183;-40
2021/06/01 10:43:32;;;;;;;3.02;2.58;;;;;;;11.45;80.30;99832.17;1721289;82;21090;-42
2021/06/01 10:52:27;;;;;;;2.55;2.35;;;;;;;11.42;80.44;99837.47;1650686;84;21114;-39
2021/06/01 10:55:08;;;;;;;2.65;2.17;;;;;;;11.42;80.82;99826.09;1661677;84;21119;-40
2021/06/01 11:01:53;;;;;;;8.58;3.40;;;;;;;11.46;80.13;99831.73;1723973;77;21198;-39
2021/06/01 11:04:27;;;;;;;3.47;2.05;;;;;;;11.50;79.49;99836.51;1743367;80;21023;-39
2021/06/01 11:07:01;;;;;;;2.80;1.60;;;;;;;11.53;79.96;99844.31;1743374;80;21764;-43
2021/06/01 11:09:44;;;;;;;2.77;2.00;;;;;;;11.56;79.44;99837.30;1739840;80;21166;-39
2021/06/01 11:12:24;;;;;;;1.75;1.50;;;;;;;11.56;79.05;99841.67;1750404;79;21225;-42
2021/06/01 11:14:58;;;;;;;1.80;1.62;;;;;;;11.54;78.96;99842.12;1736963;81;21052;-43
2021/06/01 11:17:34;;;;;;;4.53;1.85;;;;;;;11.49;78.95;99835.64;1718253;82;21436;-44
2021/06/01 11:20:25;;;;;;;2.80;1.70;;;;;;;11.47;79.03;99837.39;1695272;81;21617;-44
2021/06/01 11:22:58;;;;;;;1.80;1.42;;;;;;;11.44;78.52;99831.76;1707927;81;21097;-39
2021/06/01 11:33:40;;;;;;;4.78;1.45;;;;;;;11.56;80.05;99835.99;1720059;81;21083;-44
2021/06/01 11:36:16;;;;;;;2.00;1.80;;;;;;;11.62;80.12;99841.16;1719970;83;21154;-43
2021/06/01 11:38:58;;;;;;;4.97;1.98;;;;;;;11.68;79.83;99836.30;1749232;80;21037;-44
2021/06/01 11:43:54;;;;;;;8.60;1.87;;;;;;;11.71;78.13;99833.20;1734246;82;21577;-43
2021/06/01 11:46:33;;;;;;;2.92;1.40;;;;;;;11.75;77.49;99831.84;1716775;80;21796;-39
2021/06/01 11:51:49;;;;;;;5.45;1.47;;;;;;;11.79;77.54;99830.93;1705720;82;21633;-39
2021/06/01 11:54:17;;;;;;;4.25;1.75;;;;;;;11.81;76.79;99835.28;1746108;80;21063;-40
2021/06/01 11:57:13;;;;;;;4.35;1.55;;;;;;;11.82;76.77;99829.59;1744250;80;21697;-39
2021/06/01 12:02:40;;;;;;;2.72;1.50;;;;;;;11.90;77.04;99831.70;1717055;82;21179;-38
2021/06/01 12:05:14;;;;;;;3.02;1.65;;;;;;;11.95;76.53;99836.00;1752357;81;21022;-39
2021/06/01 12:18:53;;;;;;;3.15;1.52;;;;;;;12.07;76.24;99828.41;1753299;81;21002;-43
2021/06/01 12:21:30;;;;;;;4.95;1.67;;;;;;;12.05;76.09;99830.61;1728038;81;21097;-40
2021/06/01 12:24:03;;;;;;;3.30;1.42;;;;;;;12.05;76.04;99831.48;1729792;81;21183;-43
2021/06/01 12:26:59;;;;;;;11.00;3.35;;;;;;;12.08;75.35;99831.90;1753363;80;21120;-39
2021/06/01 12:32:29;;;;;;;5.47;1.52;;;;;;;12.08;75.36;99831.45;1683221;83;21123;-41
2021/06/01 12:46:04;;;;;;;3.75;1.70;;;;;;;11.94;75.60;99839.92;1748630;81;21139;-44
2021/06/01 13:12:27;;;;;;;1.60;1.40;;;;;;;11.79;78.54;99845.34;1753087;81;21133;-39
2021/06/01 13:49:04;;;;;;;7.08;2.10;;;;;;;12.28;77.04;99842.97;1751477;80;21078;-39
2021/06/01 13:57:31;;;;;;;5.08;2.10;;;;;;;12.30;75.13;99831.16;1698024;83;21134;-43
2021/06/01 14:01:22;;;;;;;4.45;2.00;;;;;;;12.27;74.77;99833.37;1721085;81;21064;-43
2021/06/01 14:09:28;;;;;;;4.47;2.58;;;;;;;12.25;75.06;99841.27;1670250;82;21217;-43
